Time;durP1;ratioP1;P1;durP2;ratioP2;P2;SDS_P1;SDS_P2;PMS_P1;PMS_P2;Temp;Humidity;BMP_temperature;BMP_pressure;BME280_temperature;BME280_humidity;BME280_pressure;Samples;Min_cycle;Max_cycle;Signal;HPM_P1;HPM_P2
2024/04/17 00:01:31;;;;;;;35.53;6.60;;;8.60;99.90;;;;;;5462574;26;20006;-71
2024/04/17 00:03:57;;;;;;;31.85;5.53;;;8.70;99.90;;;;;;5492148;26;20029;-71
2024/04/17 00:06:23;;;;;;;41.13;5.60;;;8.70;99.90;;;;;;5436637;26;19994;-70
2024/04/17 00:08:49;;;;;;;31.08;5.40;;;8.60;99.90;;;;;;5426151;26;19997;-73
2024/04/17 00:11:14;;;;;;;23.00;4.70;;;8.60;99.90;;;;;;5493311;26;19997;-70
2024/04/17 00:13:40;;;;;;;37.80;6.60;;;8.70;99.90;;;;;;5426015;26;20002;-70
2024/04/17 00:16:06;;;;;;;25.70;5.78;;;8.60;99.90;;;;;;5487398;26;19997;-70
2024/04/17 00:18:32;;;;;;;25.27;4.93;;;8.70;99.90;;;;;;5476416;26;20009;-70
2024/04/17 00:20:57;;;;;;;42.97;6.43;;;8.70;99.90;;;;;;5489548;26;19998;-70
2024/04/17 00:23:25;;;;;;;29.67;5.85;;;8.70;99.90;;;;;;5529033;26;19998;-70
2024/04/17 00:25:51;;;;;;;34.03;7.05;;;8.70;99.90;;;;;;5463352;26;19994;-70
2024/04/17 00:28:17;;;;;;;27.50;5.55;;;8.80;99.90;;;;;;5528725;26;20001;-71
2024/04/17 00:30:42;;;;;;;22.42;5.72;;;8.70;99.90;;;;;;5539272;26;20009;-71
2024/04/17 00:33:08;;;;;;;31.80;5.43;;;8.70;99.90;;;;;;5509386;26;20002;-71
2024/04/17 00:35:34;;;;;;;28.77;5.60;;;8.70;99.90;;;;;;5496398;26;19997;-70
2024/04/17 00:37:59;;;;;;;30.65;6.50;;;8.70;99.90;;;;;;5483866;26;20022;-71
2024/04/17 00:40:25;;;;;;;28.15;5.65;;;8.70;99.90;;;;;;5474924;26;20008;-71
2024/04/17 00:42:52;;;;;;;33.58;5.22;;;8.70;99.90;;;;;;5451443;26;20074;-71
2024/04/17 00:45:18;;;;;;;36.85;5.10;;;8.70;99.90;;;;;;5506390;26;20012;-70
2024/04/17 00:47:44;;;;;;;21.90;4.10;;;8.70;99.90;;;;;;5457744;26;19998;-70
2024/04/17 00:50:12;;;;;;;27.08;5.22;;;8.80;99.90;;;;;;5501095;26;20435;-72
2024/04/17 00:52:38;;;;;;;33.72;5.68;;;8.70;99.90;;;;;;5500798;26;20002;-72
2024/04/17 00:55:06;;;;;;;35.63;5.82;;;8.70;99.90;;;;;;5500581;26;20013;-71
2024/04/17 00:57:34;;;;;;;27.48;4.57;;;8.70;99.90;;;;;;5503210;26;19998;-70
2024/04/17 01:00:01;;;;;;;33.63;5.78;;;8.60;99.90;;;;;;5504026;26;20017;-72
2024/04/17 01:02:27;;;;;;;41.08;6.28;;;8.60;99.90;;;;;;5495566;26;20067;-75
2024/04/17 01:04:52;;;;;;;31.27;5.75;;;8.60;99.90;;;;;;5481177;26;20006;-69
2024/04/17 01:07:18;;;;;;;29.25;5.57;;;8.60;99.90;;;;;;5481081;26;20009;-72
2024/04/17 01:09:44;;;;;;;32.75;6.32;;;8.60;99.90;;;;;;5478529;26;20002;-70
2024/04/17 01:12:10;;;;;;;25.17;4.82;;;8.40;99.90;;;;;;5450291;26;20003;-72
2024/04/17 01:14:35;;;;;;;30.30;5.25;;;8.50;99.90;;;;;;5443756;26;20013;-72
2024/04/17 01:17:01;;;;;;;27.90;5.75;;;8.50;99.90;;;;;;5427851;26;20445;-69
2024/04/17 01:19:28;;;;;;;27.48;5.45;;;8.60;99.90;;;;;;5478006;26;19994;-72
2024/04/17 01:21:54;;;;;;;35.33;6.97;;;8.50;99.90;;;;;;5434843;26;20067;-70
2024/04/17 01:24:20;;;;;;;50.30;8.43;;;8.20;99.90;;;;;;5486249;26;20014;-71
2024/04/17 01:26:45;;;;;;;36.75;7.35;;;8.10;99.90;;;;;;5444717;26;20012;-70
2024/04/17 01:29:11;;;;;;;36.92;8.05;;;8.20;99.90;;;;;;5427883;26;20010;-71
2024/04/17 01:31:37;;;;;;;33.88;7.60;;;8.10;99.90;;;;;;5492318;26;20009;-72
2024/04/17 01:34:03;;;;;;;45.72;7.72;;;8.20;99.90;;;;;;5490318;26;20013;-70
2024/04/17 01:36:28;;;;;;;36.38;7.55;;;8.10;99.90;;;;;;5485401;26;20009;-73
2024/04/17 01:38:54;;;;;;;30.73;6.72;;;8.00;99.90;;;;;;5484073;26;20004;-70
2024/04/17 01:41:20;;;;;;;30.45;7.90;;;8.00;99.90;;;;;;5425825;26;20042;-69
2024/04/17 01:43:45;;;;;;;30.80;6.03;;;7.90;99.90;;;;;;5492342;26;20500;-71
2024/04/17 01:46:11;;;;;;;29.23;7.05;;;7.80;99.90;;;;;;5493561;26;20714;-71
2024/04/17 01:48:37;;;;;;;24.38;6.50;;;7.90;99.90;;;;;;5451123;26;19998;-72
2024/04/17 01:51:02;;;;;;;32.20;7.07;;;7.90;99.90;;;;;;5464815;26;20017;-70
2024/04/17 01:53:28;;;;;;;28.85;6.40;;;8.10;99.90;;;;;;5467465;26;20009;-72
2024/04/17 01:55:55;;;;;;;32.53;7.75;;;8.10;99.90;;;;;;5488470;26;20004;-70
2024/04/17 01:58:21;;;;;;;35.20;6.55;;;8.20;99.90;;;;;;5488064;26;20038;-72
2024/04/17 02:00:47;;;;;;;33.35;7.15;;;8.30;99.90;;;;;;5494769;26;19993;-71
2024/04/17 02:03:13;;;;;;;27.38;5.97;;;8.40;99.90;;;;;;5458322;26;19998;-71
2024/04/17 02:05:38;;;;;;;23.15;5.78;;;8.50;99.90;;;;;;5526271;26;20752;-73
2024/04/17 02:08:05;;;;;;;29.63;5.28;;;8.70;99.90;;;;;;5520260;26;19997;-71
2024/04/17 02:10:30;;;;;;;25.48;5.10;;;8.50;99.90;;;;;;5493980;26;20001;-70
2024/04/17 02:12:56;;;;;;;27.75;5.40;;;8.40;99.90;;;;;;5450131;26;20017;-72
2024/04/17 02:15:22;;;;;;;25.30;5.82;;;8.30;99.90;;;;;;5462248;26;20009;-70
2024/04/17 02:17:47;;;;;;;28.88;5.28;;;8.40;99.90;;;;;;5463532;26;20342;-70
2024/04/17 02:20:13;;;;;;;25.95;5.10;;;8.40;99.90;;;;;;5494148;26;20492;-71
2024/04/17 02:22:39;;;;;;;22.33;4.68;;;8.50;99.90;;;;;;5491464;26;20009;-72
2024/04/17 02:25:05;;;;;;;24.10;4.55;;;8.50;99.90;;;;;;5498108;26;20008;-74
2024/04/17 02:27:30;;;;;;;16.85;3.83;;;8.50;99.90;;;;;;5479304;26;20005;-71
2024/04/17 02:29:56;;;;;;;20.92;3.78;;;8.50;99.90;;;;;;5458756;26;19998;-72
2024/04/17 02:32:22;;;;;;;24.05;3.92;;;8.40;99.90;;;;;;5488024;26;20418;-71
2024/04/17 02:34:48;;;;;;;13.55;3.30;;;8.40;99.90;;;;;;5494826;26;20004;-71
2024/04/17 02:37:13;;;;;;;20.70;3.28;;;8.30;99.90;;;;;;5455505;26;20526;-70
2024/04/17 02:39:39;;;;;;;15.07;3.67;;;8.30;99.90;;;;;;5421020;26;20009;-71
2024/04/17 02:42:05;;;;;;;20.42;3.20;;;8.20;99.90;;;;;;5490995;26;20330;-72
2024/04/17 02:44:30;;;;;;;15.50;3.28;;;8.20;99.90;;;;;;5422700;26;20016;-70
2024/04/17 02:47:00;;;;;;;17.92;3.53;;;8.20;99.90;;;;;;5483177;26;20004;-71
2024/04/17 02:49:27;;;;;;;9.90;2.90;;;8.40;99.90;;;;;;5468572;26;20012;-72
2024/04/17 02:51:52;;;;;;;14.93;2.90;;;8.60;99.90;;;;;;5497453;26;20020;-70
2024/04/17 02:54:18;;;;;;;15.52;4.28;;;8.70;99.90;;;;;;5466872;26;19997;-69
2024/04/17 02:56:44;;;;;;;14.15;2.70;;;8.70;99.90;;;;;;5426782;26;20005;-69
2024/04/17 02:59:09;;;;;;;13.68;3.10;;;8.70;99.90;;;;;;5456694;26;19998;-69
2024/04/17 03:01:35;;;;;;;11.90;3.65;;;8.60;99.90;;;;;;5482731;26;20017;-69
2024/04/17 03:04:01;;;;;;;6.22;2.53;;;8.60;99.90;;;;;;5521955;26;20341;-69
2024/04/17 03:06:26;;;;;;;9.70;2.65;;;8.60;99.90;;;;;;5463343;26;19998;-71
2024/04/17 03:08:52;;;;;;;9.02;2.20;;;8.70;99.90;;;;;;5499063;26;19998;-69
2024/04/17 03:11:18;;;;;;;12.30;2.70;;;8.90;99.90;;;;;;5467197;26;20001;-69
2024/04/17 03:13:43;;;;;;;9.68;2.63;;;8.90;99.90;;;;;;5495362;26;19997;-70
2024/04/17 03:16:09;;;;;;;9.15;2.22;;;9.00;99.90;;;;;;5498703;26;20016;-69
2024/04/17 03:18:35;;;;;;;10.57;2.33;;;9.00;99.90;;;;;;5523577;26;19994;-73
2024/04/17 03:21:01;;;;;;;13.68;2.90;;;9.10;99.90;;;;;;5492582;26;20005;-69
2024/04/17 03:23:27;;;;;;;9.15;2.03;;;9.10;99.90;;;;;;5464603;26;19993;-70
2024/04/17 03:25:57;;;;;;;10.55;2.15;;;9.10;99.90;;;;;;5498462;26;19997;-69
2024/04/17 03:28:23;;;;;;;12.85;2.70;;;9.10;99.90;;;;;;5441103;26;20033;-70
2024/04/17 03:30:48;;;;;;;13.27;2.22;;;9.10;99.90;;;;;;5531384;26;20438;-69
2024/04/17 03:33:14;;;;;;;5.70;1.70;;;9.10;99.90;;;;;;5498211;26;20012;-71
2024/04/17 03:35:40;;;;;;;10.32;2.25;;;9.10;99.90;;;;;;5512819;26;19997;-68
2024/04/17 03:38:05;;;;;;;7.72;2.00;;;9.10;99.90;;;;;;5447503;26;20005;-68
2024/04/17 03:40:31;;;;;;;8.80;2.70;;;9.20;99.90;;;;;;5464524;26;19998;-68
2024/04/17 03:42:57;;;;;;;10.95;2.35;;;9.20;99.90;;;;;;5464849;26;20013;-73
2024/04/17 03:45:23;;;;;;;7.93;2.20;;;9.20;99.90;;;;;;5461531;26;19997;-68
2024/04/17 03:47:48;;;;;;;7.22;1.98;;;9.10;99.90;;;;;;5496068;26;20021;-67
2024/04/17 03:50:14;;;;;;;8.23;2.35;;;9.10;99.90;;;;;;5534525;26;19994;-68
2024/04/17 03:52:40;;;;;;;9.98;2.78;;;8.90;99.90;;;;;;5450518;26;20454;-70
2024/04/17 03:55:06;;;;;;;10.10;2.42;;;9.00;99.90;;;;;;5486497;26;19998;-71
2024/04/17 03:57:31;;;;;;;12.85;3.03;;;8.80;99.90;;;;;;5521565;26;20016;-71
2024/04/17 03:59:57;;;;;;;10.75;2.90;;;8.70;99.90;;;;;;5526389;26;20009;-70
2024/04/17 04:02:23;;;;;;;12.13;3.10;;;8.80;99.90;;;;;;5455660;26;20070;-70
2024/04/17 04:04:49;;;;;;;10.50;3.10;;;8.80;99.90;;;;;;5514211;26;20002;-70
2024/04/17 04:07:15;;;;;;;11.80;3.05;;;8.80;99.90;;;;;;5497438;26;19994;-70
2024/04/17 04:09:41;;;;;;;9.18;2.83;;;8.70;99.90;;;;;;5491668;26;20012;-74
2024/04/17 04:12:06;;;;;;;12.65;3.42;;;8.80;99.90;;;;;;5523374;26;20009;-69
2024/04/17 04:14:32;;;;;;;15.02;2.90;;;8.70;99.90;;;;;;5530289;26;20006;-68
2024/04/17 04:16:58;;;;;;;13.02;2.83;;;8.70;99.90;;;;;;5481493;26;20001;-70
2024/04/17 04:19:24;;;;;;;12.80;3.00;;;8.70;99.90;;;;;;5528807;26;19997;-69
2024/04/17 04:21:50;;;;;;;8.38;2.08;;;8.70;99.90;;;;;;5494589;26;19998;-71
2024/04/17 04:24:15;;;;;;;6.55;2.03;;;8.70;99.90;;;;;;5465461;26;20065;-69
2024/04/17 04:26:41;;;;;;;10.57;2.70;;;8.60;99.90;;;;;;5495251;26;20011;-70
2024/04/17 04:29:10;;;;;;;7.80;2.13;;;8.60;99.90;;;;;;5459648;26;20438;-71
2024/04/17 04:31:36;;;;;;;12.40;2.42;;;8.50;99.90;;;;;;5459671;26;20009;-71
2024/04/17 04:34:01;;;;;;;8.90;2.10;;;8.50;99.90;;;;;;5495033;26;20013;-69
2024/04/17 04:36:27;;;;;;;16.60;3.40;;;8.60;99.90;;;;;;5488470;26;20076;-69
2024/04/17 04:38:53;;;;;;;11.02;2.50;;;8.50;99.90;;;;;;5456415;26;20066;-71
2024/04/17 04:41:19;;;;;;;10.70;2.53;;;8.50;99.90;;;;;;5460926;26;19995;-68
2024/04/17 04:43:45;;;;;;;14.75;2.60;;;8.50;99.90;;;;;;5458989;26;20333;-68
2024/04/17 04:46:11;;;;;;;15.20;4.88;;;8.50;99.90;;;;;;5488049;26;20033;-70
2024/04/17 04:48:37;;;;;;;17.27;3.20;;;8.60;99.90;;;;;;5495851;26;20008;-69
2024/04/17 04:51:03;;;;;;;11.95;2.53;;;8.60;99.90;;;;;;5452804;26;20337;-70
2024/04/17 04:53:28;;;;;;;10.93;2.60;;;8.60;99.90;;;;;;5515487;26;19993;-68
2024/04/17 04:55:58;;;;;;;8.93;2.38;;;8.70;99.90;;;;;;5458211;26;20013;-69
2024/04/17 04:58:24;;;;;;;18.75;2.55;;;8.60;99.90;;;;;;5495363;26;19998;-68
2024/04/17 05:00:54;;;;;;;9.30;3.28;;;8.40;99.90;;;;;;5495916;26;20016;-73
2024/04/17 05:03:23;;;;;;;8.57;3.25;;;8.30;99.90;;;;;;5497162;26;20343;-71
2024/04/17 05:05:49;;;;;;;11.95;4.13;;;8.10;99.90;;;;;;5499626;26;20001;-71
2024/04/17 05:08:14;;;;;;;9.38;3.92;;;8.10;99.90;;;;;;5508341;26;20004;-69
2024/04/17 05:10:40;;;;;;;15.95;4.38;;;8.10;99.90;;;;;;5481377;26;19993;-71
2024/04/17 05:13:06;;;;;;;11.30;4.53;;;8.20;99.90;;;;;;5505201;26;19998;-70
2024/04/17 05:15:31;;;;;;;17.00;5.75;;;8.10;99.90;;;;;;5504818;26;20037;-69
2024/04/17 05:17:57;;;;;;;21.73;5.45;;;8.30;99.90;;;;;;5507432;26;20005;-73
2024/04/17 05:20:23;;;;;;;16.48;5.78;;;8.20;99.90;;;;;;5530202;26;20347;-71
2024/04/17 05:22:48;;;;;;;10.30;5.05;;;8.20;99.90;;;;;;5498167;26;21665;-68
2024/04/17 05:25:19;;;;;;;14.52;5.15;;;8.20;99.90;;;;;;5467038;26;20009;-70
2024/04/17 05:27:46;;;;;;;13.52;5.00;;;8.20;99.90;;;;;;5527631;26;20016;-67
2024/04/17 05:30:12;;;;;;;15.73;4.95;;;8.20;99.90;;;;;;5495357;26;20008;-74
2024/04/17 05:32:37;;;;;;;14.63;4.55;;;8.20;99.90;;;;;;5494006;26;20016;-69
2024/04/17 05:35:04;;;;;;;25.25;5.50;;;8.10;99.90;;;;;;5499408;26;20001;-71
2024/04/17 05:37:30;;;;;;;16.27;5.45;;;8.10;99.90;;;;;;5528054;26;20013;-69
2024/04/17 05:39:56;;;;;;;25.27;7.43;;;8.30;99.90;;;;;;5528387;26;20325;-68
2024/04/17 05:42:21;;;;;;;18.60;6.03;;;8.20;99.90;;;;;;5464613;26;19997;-70
2024/04/17 05:44:47;;;;;;;21.80;5.35;;;8.30;99.90;;;;;;5431015;26;20051;-69
2024/04/17 05:47:13;;;;;;;14.40;5.60;;;8.30;99.90;;;;;;5426822;26;20002;-68
2024/04/17 05:49:38;;;;;;;16.73;5.15;;;8.20;99.90;;;;;;5461352;26;20034;-68
2024/04/17 05:52:09;;;;;;;20.30;4.93;;;8.20;99.90;;;;;;5495524;26;20002;-70
2024/04/17 05:54:37;;;;;;;26.42;5.68;;;8.50;99.90;;;;;;5465542;26;20001;-71
2024/04/17 05:57:03;;;;;;;22.63;5.25;;;8.60;99.90;;;;;;5526726;26;20073;-68
2024/04/17 05:59:29;;;;;;;23.55;4.78;;;8.70;99.90;;;;;;5493068;26;20629;-68
2024/04/17 06:01:57;;;;;;;24.90;6.32;;;8.70;99.90;;;;;;5452206;26;20055;-69
2024/04/17 06:04:23;;;;;;;19.48;6.10;;;8.80;99.90;;;;;;5485591;26;20077;-68
2024/04/17 06:06:48;;;;;;;18.35;5.25;;;8.80;99.90;;;;;;5495277;26;20009;-68
2024/04/17 06:09:14;;;;;;;21.48;5.90;;;8.90;99.90;;;;;;5529542;26;20418;-69
2024/04/17 06:11:39;;;;;;;18.17;5.32;;;9.00;99.90;;;;;;5431424;26;20005;-70
2024/04/17 06:14:05;;;;;;;20.40;5.50;;;9.00;99.90;;;;;;5495314;26;20351;-70
2024/04/17 06:16:31;;;;;;;20.10;4.90;;;9.00;99.90;;;;;;5528300;26;20004;-68
2024/04/17 06:18:56;;;;;;;24.55;4.65;;;9.00;99.90;;;;;;5521300;26;20109;-74
2024/04/17 06:21:22;;;;;;;19.30;6.07;;;9.00;99.90;;;;;;5496575;26;20004;-68
2024/04/17 06:23:48;;;;;;;19.80;4.75;;;9.10;99.90;;;;;;5528271;26;20001;-68
2024/04/17 06:26:15;;;;;;;24.17;4.85;;;9.20;99.90;;;;;;5492511;26;20008;-69
2024/04/17 06:28:40;;;;;;;19.42;5.75;;;9.30;99.90;;;;;;5527338;26;19997;-68
2024/04/17 06:31:06;;;;;;;23.23;5.63;;;9.40;99.90;;;;;;5494166;26;20004;-68
2024/04/17 06:33:32;;;;;;;30.38;4.70;;;9.40;99.90;;;;;;5457475;26;20074;-69
2024/04/17 06:35:58;;;;;;;32.15;5.82;;;9.50;99.90;;;;;;5518780;26;20025;-71
2024/04/17 06:38:23;;;;;;;17.85;4.43;;;9.50;99.90;;;;;;5494655;26;20019;-68
2024/04/17 06:40:49;;;;;;;18.17;4.47;;;9.60;99.90;;;;;;5522754;26;19993;-68
2024/04/17 06:43:15;;;;;;;31.83;6.95;;;9.70;99.90;;;;;;5476298;26;19997;-68
2024/04/17 06:45:41;;;;;;;23.33;4.47;;;9.90;99.90;;;;;;5526201;26;19994;-68
2024/04/17 06:48:08;;;;;;;22.83;4.70;;;10.00;99.90;;;;;;5493984;26;20004;-73
2024/04/17 06:50:34;;;;;;;26.77;4.03;;;10.10;99.90;;;;;;5495316;26;20004;-71
2024/04/17 06:53:00;;;;;;;20.55;4.05;;;10.20;99.90;;;;;;5526894;26;19997;-68
2024/04/17 06:55:25;;;;;;;18.52;4.78;;;10.20;99.90;;;;;;5494844;26;19993;-70
2024/04/17 06:57:51;;;;;;;16.25;4.35;;;10.20;99.90;;;;;;5452727;26;20515;-68
2024/04/17 07:00:17;;;;;;;21.65;3.90;;;10.20;99.90;;;;;;5454123;26;20012;-71
2024/04/17 07:02:43;;;;;;;25.67;3.88;;;10.30;99.90;;;;;;5527526;26;20029;-69
2024/04/17 07:05:08;;;;;;;23.42;3.92;;;10.50;99.90;;;;;;5499308;26;20017;-70
2024/04/17 07:07:34;;;;;;;22.58;3.75;;;10.60;99.90;;;;;;5475496;26;20042;-73
2024/04/17 07:10:00;;;;;;;16.42;3.85;;;10.70;99.90;;;;;;5500856;26;20012;-70
2024/04/17 07:12:25;;;;;;;27.80;3.63;;;10.70;99.90;;;;;;5527394;26;20460;-70
2024/04/17 07:14:51;;;;;;;30.35;4.00;;;10.80;99.90;;;;;;5526305;26;19994;-70
2024/04/17 07:17:16;;;;;;;19.55;3.38;;;10.80;99.90;;;;;;5494736;26;20330;-70
2024/04/17 07:19:42;;;;;;;30.67;3.65;;;10.90;99.90;;;;;;5479458;26;20011;-70
2024/04/17 07:22:08;;;;;;;20.20;3.65;;;10.90;99.90;;;;;;5528490;26;20000;-69
2024/04/17 07:24:33;;;;;;;26.05;4.35;;;11.00;99.90;;;;;;5495841;26;20073;-68
2024/04/17 07:26:59;;;;;;;19.77;4.00;;;11.20;99.90;;;;;;5447779;26;20316;-68
2024/04/17 07:29:25;;;;;;;20.83;3.75;;;11.20;99.90;;;;;;5492853;26;19994;-71
2024/04/17 07:31:50;;;;;;;33.92;4.90;;;11.10;99.90;;;;;;5420398;26;20013;-70
2024/04/17 07:34:16;;;;;;;22.73;3.40;;;11.10;99.90;;;;;;5457293;26;20038;-69
2024/04/17 07:36:42;;;;;;;22.48;4.03;;;10.90;99.90;;;;;;5493762;26;19997;-70
2024/04/17 07:39:10;;;;;;;20.77;4.38;;;10.70;99.90;;;;;;5462425;26;20341;-71
2024/04/17 07:41:36;;;;;;;26.98;4.55;;;10.70;99.90;;;;;;5439246;26;20028;-69
2024/04/17 07:44:02;;;;;;;23.30;3.63;;;10.70;99.90;;;;;;5467506;26;19994;-69
2024/04/17 07:46:27;;;;;;;32.05;4.80;;;10.60;99.90;;;;;;5492599;26;20065;-69
2024/04/17 07:48:55;;;;;;;25.50;5.38;;;10.80;99.90;;;;;;5463495;26;20030;-70
2024/04/17 07:51:20;;;;;;;22.38;3.83;;;10.90;99.90;;;;;;5483814;26;20073;-69
2024/04/17 07:53:46;;;;;;;18.55;3.10;;;10.90;99.90;;;;;;5493757;26;19998;-69
2024/04/17 07:56:12;;;;;;;23.40;4.28;;;10.90;99.90;;;;;;5535901;26;19997;-70
2024/04/17 07:58:38;;;;;;;20.25;3.40;;;10.90;99.90;;;;;;5493810;26;20029;-68
2024/04/17 08:01:04;;;;;;;20.25;3.78;;;10.90;99.90;;;;;;5438536;26;20009;-68
2024/04/17 08:03:29;;;;;;;25.83;4.10;;;10.90;99.90;;;;;;5478591;26;19997;-68
2024/04/17 08:05:55;;;;;;;22.80;4.18;;;11.10;99.90;;;;;;5400252;26;19998;-69
2024/04/17 08:08:21;;;;;;;24.25;3.95;;;11.30;99.90;;;;;;5455793;26;20022;-67
2024/04/17 08:10:47;;;;;;;23.55;3.63;;;11.50;99.90;;;;;;5462979;26;19998;-68
2024/04/17 08:13:14;;;;;;;32.58;4.63;;;11.60;99.90;;;;;;5492615;26;19998;-71
2024/04/17 08:15:48;;;;;;;26.77;3.65;;;11.80;99.90;;;;;;5492863;26;20446;-68
2024/04/17 08:18:14;;;;;;;19.20;3.45;;;11.80;99.90;;;;;;5525198;26;20461;-70
2024/04/17 08:20:40;;;;;;;22.67;3.50;;;12.00;99.90;;;;;;5468891;26;20001;-70
2024/04/17 08:23:05;;;;;;;24.38;3.70;;;12.20;99.90;;;;;;5491827;26;20001;-71
2024/04/17 08:25:31;;;;;;;25.60;4.60;;;12.20;99.90;;;;;;5494013;26;20020;-69
2024/04/17 08:27:57;;;;;;;26.10;3.85;;;12.00;99.90;;;;;;5492183;26;20008;-73
2024/04/17 08:30:22;;;;;;;34.92;4.28;;;11.90;99.90;;;;;;5457530;26;19998;-70
2024/04/17 08:32:49;;;;;;;29.05;4.75;;;12.10;99.90;;;;;;5500880;26;20001;-70
2024/04/17 08:35:15;;;;;;;21.85;3.58;;;12.10;99.90;;;;;;5524743;26;20001;-70
2024/04/17 08:37:40;;;;;;;23.77;4.10;;;12.30;99.90;;;;;;5454742;26;20318;-69
2024/04/17 08:40:09;;;;;;;35.78;4.45;;;12.50;99.90;;;;;;5444910;26;20331;-72
2024/04/17 08:42:35;;;;;;;16.00;2.92;;;12.90;99.90;;;;;;5493071;26;20026;-73
2024/04/17 08:45:09;;;;;;;24.60;3.50;;;12.80;99.90;;;;;;5492762;26;20009;-70
2024/04/17 08:47:37;;;;;;;21.45;3.60;;;12.80;99.90;;;;;;5524753;26;20351;-73
2024/04/17 08:50:04;;;;;;;20.63;3.67;;;12.80;99.90;;;;;;5533993;26;19998;-71
2024/04/17 08:52:32;;;;;;;25.13;3.00;;;12.60;99.90;;;;;;5537499;26;19998;-71
2024/04/17 08:54:58;;;;;;;20.95;3.35;;;12.60;99.90;;;;;;5535649;26;20005;-72
2024/04/17 08:57:24;;;;;;;21.55;3.22;;;12.60;99.90;;;;;;5501001;26;20685;-72
2024/04/17 08:59:50;;;;;;;28.45;3.58;;;12.50;99.90;;;;;;5501088;26;20005;-70
2024/04/17 09:02:16;;;;;;;13.50;2.60;;;12.50;99.90;;;;;;5470210;26;20088;-73
2024/04/17 09:04:46;;;;;;;18.90;3.15;;;12.60;99.90;;;;;;5530937;26;20001;-71
2024/04/17 09:07:12;;;;;;;24.52;2.85;;;12.70;99.90;;;;;;5495963;26;20012;-72
2024/04/17 09:09:41;;;;;;;18.83;2.78;;;13.10;99.90;;;;;;5497517;26;20001;-71
2024/04/17 09:12:10;;;;;;;19.38;2.75;;;13.40;99.90;;;;;;5530299;26;19997;-72
2024/04/17 09:14:36;;;;;;;15.77;2.30;;;13.60;99.90;;;;;;5532860;26;20005;-75
2024/04/17 09:17:02;;;;;;;16.00;2.38;;;13.80;99.90;;;;;;5501627;26;20380;-73
2024/04/17 09:19:29;;;;;;;18.05;3.13;;;14.00;99.90;;;;;;5472080;26;20009;-72
2024/04/17 09:21:55;;;;;;;16.52;2.60;;;14.30;99.90;;;;;;5532638;26;20415;-71
2024/04/17 09:24:20;;;;;;;17.23;2.10;;;14.70;99.90;;;;;;5422958;26;19998;-71
2024/04/17 09:26:46;;;;;;;26.45;3.17;;;14.90;99.90;;;;;;5511276;26;20247;-74
2024/04/17 09:29:15;;;;;;;13.05;2.55;;;15.00;99.90;;;;;;5507599;26;19997;-72
2024/04/17 09:31:45;;;;;;;14.25;2.58;;;14.80;99.90;;;;;;5464464;26;20000;-72
2024/04/17 09:34:15;;;;;;;13.48;2.75;;;14.80;99.90;;;;;;5502250;26;20012;-73
2024/04/17 09:36:50;;;;;;;20.23;2.70;;;15.00;99.90;;;;;;5496774;26;20012;-73
2024/04/17 09:39:15;;;;;;;29.30;2.67;;;15.30;99.90;;;;;;5495691;26;20008;-72
2024/04/17 09:41:42;;;;;;;24.20;3.10;;;15.20;99.90;;;;;;5495375;26;19998;-72
2024/04/17 09:44:11;;;;;;;18.80;2.75;;;15.20;99.90;;;;;;5496061;26;20002;-72
2024/04/17 09:46:37;;;;;;;8.68;1.73;;;15.10;98.90;;;;;;5458867;26;20009;-72
2024/04/17 09:49:22;;;;;;;17.25;2.33;;;14.90;99.10;;;;;;5526676;26;20001;-72
2024/04/17 09:51:55;;;;;;;9.98;2.00;;;13.60;99.90;;;;;;5527180;26;20337;-72
2024/04/17 09:54:21;;;;;;;13.48;1.52;;;13.10;99.90;;;;;;5494460;26;20012;-72
2024/04/17 09:56:49;;;;;;;8.52;1.10;;;12.40;99.90;;;;;;5494022;26;19998;-73
2024/04/17 09:59:19;;;;;;;5.00;0.98;;;11.90;99.90;;;;;;5495523;26;20022;-74
2024/04/17 10:01:45;;;;;;;6.03;0.98;;;11.60;99.90;;;;;;5493962;26;19993;-74
2024/04/17 10:04:13;;;;;;;8.32;1.20;;;11.40;99.90;;;;;;5465259;26;20099;-72
2024/04/17 10:06:45;;;;;;;8.00;1.35;;;11.00;99.90;;;;;;5493708;26;20456;-72
2024/04/17 10:09:14;;;;;;;5.22;1.08;;;10.70;99.90;;;;;;5497229;26;20002;-74
2024/04/17 10:11:41;;;;;;;4.35;1.00;;;10.50;99.90;;;;;;5493980;26;20011;-72
2024/04/17 10:14:12;;;;;;;5.32;1.10;;;10.40;99.90;;;;;;5494116;26;20009;-73
2024/04/17 10:16:38;;;;;;;2.28;0.80;;;10.40;99.90;;;;;;5495861;26;20016;-74
2024/04/17 10:19:04;;;;;;;5.32;1.38;;;10.50;99.90;;;;;;5443539;26;20361;-74
2024/04/17 10:21:36;;;;;;;3.00;0.90;;;10.50;99.90;;;;;;5475351;26;20027;-73
2024/04/17 10:24:06;;;;;;;2.55;1.00;;;10.80;99.90;;;;;;5526479;26;20002;-72
2024/04/17 10:26:45;;;;;;;4.45;1.27;;;10.90;99.90;;;;;;5526668;26;20070;-72
2024/04/17 10:29:29;;;;;;;8.77;1.25;;;11.20;99.90;;;;;;5466672;26;20338;-72
2024/04/17 10:32:01;;;;;;;4.03;1.02;;;11.30;99.90;;;;;;5494491;26;20011;-74
2024/04/17 10:34:28;;;;;;;6.10;1.02;;;11.30;99.90;;;;;;5526853;26;20334;-74
2024/04/17 10:36:58;;;;;;;1.80;1.00;;;11.00;99.90;;;;;;5527717;26;20037;-73
2024/04/17 10:39:27;;;;;;;4.07;1.25;;;10.70;99.90;;;;;;5527523;26;20001;-72
2024/04/17 10:41:53;;;;;;;3.03;1.13;;;10.60;99.90;;;;;;5493998;26;20338;-73
2024/04/17 10:44:22;;;;;;;2.33;1.20;;;10.40;99.90;;;;;;5465279;26;20001;-72
2024/04/17 10:46:47;;;;;;;5.13;1.65;;;9.80;99.90;;;;;;5485456;26;20014;-72
2024/04/17 10:49:17;;;;;;;2.28;1.20;;;9.30;99.90;;;;;;5489481;26;20066;-71
2024/04/17 10:51:44;;;;;;;1.52;1.10;;;8.70;99.90;;;;;;5492684;26;20380;-71
2024/04/17 10:54:13;;;;;;;2.47;1.13;;;8.20;99.90;;;;;;5497143;26;19998;-70
2024/04/17 10:56:39;;;;;;;3.80;1.15;;;7.90;99.90;;;;;;5495550;26;19998;-71
2024/04/17 10:59:05;;;;;;;7.13;1.00;;;7.60;99.90;;;;;;5490566;26;20002;-73
2024/04/17 11:01:31;;;;;;;2.90;1.10;;;7.30;99.90;;;;;;5490437;26;20431;-71
2024/04/17 11:03:57;;;;;;;4.68;1.17;;;7.20;99.90;;;;;;5491557;26;20002;-72
2024/04/17 11:06:23;;;;;;;4.07;1.50;;;7.10;99.90;;;;;;5489412;26;20042;-73
2024/04/17 11:08:49;;;;;;;8.45;1.55;;;7.30;99.90;;;;;;5460985;26;20331;-71
2024/04/17 11:11:16;;;;;;;2.75;1.27;;;7.50;99.90;;;;;;5492745;26;20400;-72
2024/04/17 11:13:46;;;;;;;4.70;1.45;;;7.80;99.90;;;;;;5489568;26;19998;-72
2024/04/17 11:16:12;;;;;;;7.10;1.10;;;8.00;99.90;;;;;;5487771;26;20330;-72
2024/04/17 11:18:38;;;;;;;3.53;1.60;;;8.40;99.90;;;;;;5444131;26;19999;-72
2024/04/17 11:21:04;;;;;;;7.47;2.05;;;8.60;99.90;;;;;;5491676;26;20021;-72
2024/04/17 11:23:40;;;;;;;4.07;1.40;;;8.80;99.90;;;;;;5434659;26;20014;-73
2024/04/17 11:26:06;;;;;;;5.40;1.80;;;8.70;99.90;;;;;;5483817;26;20338;-72
2024/04/17 11:28:32;;;;;;;3.45;1.45;;;8.90;99.90;;;;;;5487690;26;20327;-72
2024/04/17 11:30:58;;;;;;;2.70;1.73;;;9.00;99.90;;;;;;5488971;26;20017;-74
2024/04/17 11:33:26;;;;;;;10.00;3.10;;;9.10;99.90;;;;;;5489637;26;20002;-73
2024/04/17 11:36:26;;;;;;;3.72;1.85;;;9.10;99.90;;;;;;5428402;26;20020;-72
2024/04/17 11:38:52;;;;;;;3.92;1.35;;;9.10;99.90;;;;;;5407656;26;19998;-72
2024/04/17 11:41:19;;;;;;;3.95;1.80;;;9.00;99.90;;;;;;5488065;26;20733;-71
2024/04/17 11:43:44;;;;;;;3.40;1.98;;;9.20;99.90;;;;;;5489121;26;20006;-71
2024/04/17 11:46:10;;;;;;;2.08;1.20;;;9.30;99.90;;;;;;5496874;26;20001;-72
2024/04/17 11:48:36;;;;;;;9.73;2.28;;;9.20;99.90;;;;;;5530359;26;20011;-73
2024/04/17 11:51:02;;;;;;;8.82;2.72;;;9.30;99.90;;;;;;5498939;26;19998;-73
2024/04/17 11:53:28;;;;;;;5.90;1.92;;;9.90;99.90;;;;;;5529392;26;20042;-72
2024/04/17 11:55:54;;;;;;;7.05;2.00;;;10.10;99.90;;;;;;5495575;26;20001;-71
2024/04/17 11:58:19;;;;;;;4.45;1.80;;;10.30;99.90;;;;;;5527295;26;20437;-71
2024/04/17 12:00:45;;;;;;;5.80;1.58;;;10.00;99.90;;;;;;5497069;26;19997;-73
2024/04/17 12:03:11;;;;;;;3.63;1.27;;;9.60;99.90;;;;;;5527191;26;20009;-74
2024/04/17 12:05:37;;;;;;;6.65;1.48;;;9.30;99.90;;;;;;5443557;26;20005;-71
2024/04/17 12:08:03;;;;;;;4.22;1.52;;;9.10;99.90;;;;;;5466568;26;19997;-71
2024/04/17 12:10:28;;;;;;;3.97;1.10;;;8.90;99.90;;;;;;5471398;26;20009;-72
2024/04/17 12:12:54;;;;;;;5.20;1.83;;;8.80;99.90;;;;;;5495815;26;19990;-73
2024/04/17 12:15:20;;;;;;;4.05;1.60;;;9.10;99.90;;;;;;5494373;26;20012;-74
2024/04/17 12:17:46;;;;;;;1.95;1.30;;;9.70;99.90;;;;;;5492080;26;19993;-71
2024/04/17 12:20:11;;;;;;;4.35;1.60;;;9.80;99.90;;;;;;5462729;26;20441;-71
2024/04/17 12:22:38;;;;;;;4.90;2.00;;;9.70;99.90;;;;;;5492179;26;20005;-74
2024/04/17 12:27:48;;;;;;;6.45;2.08;;;9.80;99.90;;;;;;5526624;26;20013;-72
2024/04/17 12:30:13;;;;;;;4.43;1.60;;;9.90;99.90;;;;;;5467200;26;20001;-73
2024/04/17 12:32:39;;;;;;;5.22;1.98;;;10.00;99.90;;;;;;5467278;26;19997;-74
2024/04/17 12:35:05;;;;;;;3.90;2.20;;;10.10;99.90;;;;;;5530426;26;20001;-73
2024/04/17 12:37:31;;;;;;;5.95;2.00;;;10.50;99.90;;;;;;5493481;26;20047;-73
2024/04/17 12:39:57;;;;;;;4.60;1.65;;;10.90;99.90;;;;;;5504143;26;20433;-72
2024/04/17 12:42:24;;;;;;;7.88;1.73;;;11.30;99.90;;;;;;5505037;26;20009;-73
2024/04/17 12:44:49;;;;;;;7.43;2.28;;;11.80;99.90;;;;;;5469809;26;20009;-73